Rodman, New York
Current Conditions -  °F | °C
As of 6:56 PM on Friday 21 Nov 2014 (Local Time) from KART Reporting Station
Scattered Clouds Scattered Clouds  
Wind Chill: 19°   Ceiling: Unl
Heat Index: 28°   Visibility: 10mi
Dew Point: 13°   Wind: 10mph
Humidity: 53%   Direction: 280°W
Pressure: 30.39"   Gusts: NA
Location:  43.85°N, 75.94°W
Report Text: KART 212356Z AUTO 28009KT 10SM FEW049 SCT060 M02/M11 A3039 RMK AO2 SLP299 T10221106 11017 21033 50008
Loading
Personal Weather Stations






























Interactive Weather Map New forecast layout! Learn more

10-Day Weather Forecast

Advertisements
Track Severe Weather on mobile